sensor_id;sensor_type;location;lat;lon;timestamp;P1;durP1;ratioP1;P2;durP2;ratioP2
21890;SDS011;11110;52.386;16.940;2022-07-29T00:01:39;19.35;;;4.80;;
21890;SDS011;11110;52.386;16.940;2022-07-29T00:04:08;14.20;;;4.13;;
21890;SDS011;11110;52.386;16.940;2022-07-29T00:06:37;15.48;;;4.32;;
21890;SDS011;11110;52.386;16.940;2022-07-29T00:09:06;14.10;;;4.03;;
21890;SDS011;11110;52.386;16.940;2022-07-29T00:11:34;14.55;;;4.53;;
21890;SDS011;11110;52.386;16.940;2022-07-29T00:14:04;17.40;;;4.68;;
21890;SDS011;11110;52.386;16.940;2022-07-29T00:16:33;18.63;;;5.35;;
21890;SDS011;11110;52.386;16.940;2022-07-29T00:19:02;18.17;;;4.40;;
21890;SDS011;11110;52.386;16.940;2022-07-29T00:21:30;12.88;;;3.97;;
21890;SDS011;11110;52.386;16.940;2022-07-29T00:23:59;15.55;;;3.85;;
21890;SDS011;11110;52.386;16.940;2022-07-29T00:26:27;12.73;;;3.63;;
21890;SDS011;11110;52.386;16.940;2022-07-29T00:28:58;15.98;;;4.40;;
21890;SDS011;11110;52.386;16.940;2022-07-29T00:31:48;16.35;;;4.55;;
21890;SDS011;11110;52.386;16.940;2022-07-29T00:34:17;14.02;;;4.32;;
21890;SDS011;11110;52.386;16.940;2022-07-29T00:37:03;15.68;;;4.70;;
21890;SDS011;11110;52.386;16.940;2022-07-29T00:39:33;13.80;;;4.22;;
21890;SDS011;11110;52.386;16.940;2022-07-29T00:42:02;13.40;;;4.43;;
21890;SDS011;11110;52.386;16.940;2022-07-29T00:44:35;17.73;;;4.65;;
21890;SDS011;11110;52.386;16.940;2022-07-29T00:47:06;12.75;;;3.95;;
21890;SDS011;11110;52.386;16.940;2022-07-29T00:49:35;17.52;;;5.00;;
21890;SDS011;11110;52.386;16.940;2022-07-29T00:52:06;15.57;;;4.93;;
21890;SDS011;11110;52.386;16.940;2022-07-29T00:54:35;16.55;;;4.57;;
21890;SDS011;11110;52.386;16.940;2022-07-29T00:57:10;16.60;;;4.53;;
21890;SDS011;11110;52.386;16.940;2022-07-29T00:59:40;14.73;;;4.32;;
21890;SDS011;11110;52.386;16.940;2022-07-29T01:02:09;16.45;;;5.03;;
21890;SDS011;11110;52.386;16.940;2022-07-29T01:04:38;17.50;;;4.90;;
21890;SDS011;11110;52.386;16.940;2022-07-29T01:07:07;23.23;;;4.82;;
21890;SDS011;11110;52.386;16.940;2022-07-29T01:09:36;15.93;;;4.45;;
21890;SDS011;11110;52.386;16.940;2022-07-29T01:12:13;17.23;;;5.25;;
21890;SDS011;11110;52.386;16.940;2022-07-29T01:14:44;19.40;;;5.00;;
21890;SDS011;11110;52.386;16.940;2022-07-29T01:17:16;18.30;;;5.10;;
21890;SDS011;11110;52.386;16.940;2022-07-29T01:19:49;15.45;;;4.78;;
21890;SDS011;11110;52.386;16.940;2022-07-29T01:22:25;16.23;;;4.82;;
21890;SDS011;11110;52.386;16.940;2022-07-29T01:25:19;19.13;;;4.97;;
21890;SDS011;11110;52.386;16.940;2022-07-29T01:28:13;16.10;;;4.50;;
21890;SDS011;11110;52.386;16.940;2022-07-29T01:30:53;17.27;;;5.10;;
21890;SDS011;11110;52.386;16.940;2022-07-29T01:33:24;20.17;;;5.75;;
21890;SDS011;11110;52.386;16.940;2022-07-29T01:36:12;12.77;;;4.30;;
21890;SDS011;11110;52.386;16.940;2022-07-29T01:38:45;18.50;;;5.18;;
21890;SDS011;11110;52.386;16.940;2022-07-29T01:41:22;16.95;;;5.18;;
21890;SDS011;11110;52.386;16.940;2022-07-29T01:43:53;17.65;;;4.60;;
21890;SDS011;11110;52.386;16.940;2022-07-29T01:46:27;19.60;;;5.30;;
21890;SDS011;11110;52.386;16.940;2022-07-29T01:49:02;16.50;;;5.03;;
21890;SDS011;11110;52.386;16.940;2022-07-29T01:51:35;10.95;;;4.43;;
21890;SDS011;11110;52.386;16.940;2022-07-29T01:54:13;14.98;;;4.43;;
21890;SDS011;11110;52.386;16.940;2022-07-29T01:56:47;17.95;;;4.95;;
21890;SDS011;11110;52.386;16.940;2022-07-29T01:59:18;18.27;;;5.20;;
21890;SDS011;11110;52.386;16.940;2022-07-29T02:01:52;15.18;;;4.53;;
21890;SDS011;11110;52.386;16.940;2022-07-29T02:04:22;14.48;;;4.82;;
21890;SDS011;11110;52.386;16.940;2022-07-29T02:06:57;15.73;;;4.18;;
21890;SDS011;11110;52.386;16.940;2022-07-29T02:09:34;13.60;;;4.25;;
21890;SDS011;11110;52.386;16.940;2022-07-29T02:12:04;13.55;;;4.55;;
21890;SDS011;11110;52.386;16.940;2022-07-29T02:14:36;15.00;;;4.55;;
21890;SDS011;11110;52.386;16.940;2022-07-29T02:17:08;15.88;;;4.80;;
21890;SDS011;11110;52.386;16.940;2022-07-29T02:19:40;14.75;;;4.68;;
21890;SDS011;11110;52.386;16.940;2022-07-29T02:22:11;15.50;;;4.63;;
21890;SDS011;11110;52.386;16.940;2022-07-29T02:24:41;12.82;;;4.05;;
21890;SDS011;11110;52.386;16.940;2022-07-29T02:27:12;19.13;;;4.97;;
21890;SDS011;11110;52.386;16.940;2022-07-29T02:29:41;15.18;;;4.57;;
21890;SDS011;11110;52.386;16.940;2022-07-29T02:32:12;14.13;;;4.50;;
21890;SDS011;11110;52.386;16.940;2022-07-29T02:34:41;13.77;;;4.55;;
21890;SDS011;11110;52.386;16.940;2022-07-29T02:37:11;15.25;;;4.55;;
21890;SDS011;11110;52.386;16.940;2022-07-29T02:39:41;13.98;;;4.05;;
21890;SDS011;11110;52.386;16.940;2022-07-29T02:42:12;15.80;;;4.43;;
21890;SDS011;11110;52.386;16.940;2022-07-29T02:44:43;17.80;;;5.28;;
21890;SDS011;11110;52.386;16.940;2022-07-29T02:47:16;15.98;;;4.38;;
21890;SDS011;11110;52.386;16.940;2022-07-29T02:49:48;14.77;;;4.38;;
21890;SDS011;11110;52.386;16.940;2022-07-29T02:52:22;18.08;;;4.35;;
21890;SDS011;11110;52.386;16.940;2022-07-29T02:54:55;17.38;;;5.50;;
21890;SDS011;11110;52.386;16.940;2022-07-29T02:57:30;17.65;;;4.72;;
21890;SDS011;11110;52.386;16.940;2022-07-29T03:00:21;18.13;;;4.70;;
21890;SDS011;11110;52.386;16.940;2022-07-29T03:02:52;20.52;;;5.25;;
21890;SDS011;11110;52.386;16.940;2022-07-29T03:05:23;16.20;;;4.13;;
21890;SDS011;11110;52.386;16.940;2022-07-29T03:07:52;13.27;;;3.97;;
21890;SDS011;11110;52.386;16.940;2022-07-29T03:10:25;22.33;;;4.95;;
21890;SDS011;11110;52.386;16.940;2022-07-29T03:12:54;16.55;;;4.57;;
21890;SDS011;11110;52.386;16.940;2022-07-29T03:15:24;16.00;;;4.75;;
21890;SDS011;11110;52.386;16.940;2022-07-29T03:17:55;14.82;;;4.55;;
21890;SDS011;11110;52.386;16.940;2022-07-29T03:20:24;18.25;;;4.03;;
21890;SDS011;11110;52.386;16.940;2022-07-29T03:22:52;12.73;;;3.92;;
21890;SDS011;11110;52.386;16.940;2022-07-29T03:25:21;15.70;;;4.72;;
21890;SDS011;11110;52.386;16.940;2022-07-29T03:27:49;19.02;;;5.70;;
21890;SDS011;11110;52.386;16.940;2022-07-29T03:30:17;18.55;;;4.65;;
21890;SDS011;11110;52.386;16.940;2022-07-29T03:32:48;21.67;;;5.55;;
21890;SDS011;11110;52.386;16.940;2022-07-29T03:35:19;19.67;;;5.18;;
21890;SDS011;11110;52.386;16.940;2022-07-29T03:37:48;18.52;;;5.00;;
21890;SDS011;11110;52.386;16.940;2022-07-29T03:40:18;26.95;;;6.05;;
21890;SDS011;11110;52.386;16.940;2022-07-29T03:42:49;26.45;;;6.57;;
21890;SDS011;11110;52.386;16.940;2022-07-29T03:45:21;16.95;;;4.97;;
21890;SDS011;11110;52.386;16.940;2022-07-29T03:47:51;25.33;;;6.28;;
21890;SDS011;11110;52.386;16.940;2022-07-29T03:50:28;23.85;;;6.07;;
21890;SDS011;11110;52.386;16.940;2022-07-29T03:52:57;27.85;;;6.28;;
21890;SDS011;11110;52.386;16.940;2022-07-29T03:55:26;23.90;;;5.80;;
21890;SDS011;11110;52.386;16.940;2022-07-29T03:57:57;26.50;;;6.18;;
21890;SDS011;11110;52.386;16.940;2022-07-29T04:00:28;18.58;;;4.72;;
21890;SDS011;11110;52.386;16.940;2022-07-29T04:03:00;16.67;;;4.50;;
21890;SDS011;11110;52.386;16.940;2022-07-29T04:05:30;16.95;;;4.93;;
21890;SDS011;11110;52.386;16.940;2022-07-29T04:07:58;15.60;;;4.40;;
21890;SDS011;11110;52.386;16.940;2022-07-29T04:10:27;17.25;;;4.65;;
21890;SDS011;11110;52.386;16.940;2022-07-29T04:12:59;18.02;;;4.65;;
21890;SDS011;11110;52.386;16.940;2022-07-29T04:15:28;17.27;;;4.55;;
21890;SDS011;11110;52.386;16.940;2022-07-29T04:17:57;15.98;;;4.82;;
21890;SDS011;11110;52.386;16.940;2022-07-29T04:20:26;15.52;;;4.50;;
21890;SDS011;11110;52.386;16.940;2022-07-29T04:22:56;14.57;;;4.00;;
21890;SDS011;11110;52.386;16.940;2022-07-29T04:25:24;20.65;;;5.10;;
21890;SDS011;11110;52.386;16.940;2022-07-29T04:27:53;20.27;;;5.65;;
21890;SDS011;11110;52.386;16.940;2022-07-29T04:30:31;20.30;;;4.82;;
21890;SDS011;11110;52.386;16.940;2022-07-29T04:33:00;14.95;;;3.83;;
21890;SDS011;11110;52.386;16.940;2022-07-29T04:35:28;17.85;;;4.95;;
21890;SDS011;11110;52.386;16.940;2022-07-29T04:38:06;16.65;;;5.10;;
21890;SDS011;11110;52.386;16.940;2022-07-29T04:40:42;17.95;;;4.55;;
21890;SDS011;11110;52.386;16.940;2022-07-29T04:43:12;13.82;;;4.15;;
21890;SDS011;11110;52.386;16.940;2022-07-29T04:45:48;18.30;;;4.50;;
21890;SDS011;11110;52.386;16.940;2022-07-29T04:48:16;16.35;;;4.30;;
21890;SDS011;11110;52.386;16.940;2022-07-29T04:50:44;17.15;;;3.90;;
21890;SDS011;11110;52.386;16.940;2022-07-29T04:53:14;18.35;;;4.50;;
21890;SDS011;11110;52.386;16.940;2022-07-29T04:55:42;15.25;;;4.00;;
21890;SDS011;11110;52.386;16.940;2022-07-29T04:58:11;14.77;;;4.43;;
21890;SDS011;11110;52.386;16.940;2022-07-29T05:00:39;16.85;;;4.72;;
21890;SDS011;11110;52.386;16.940;2022-07-29T05:03:08;15.48;;;3.78;;
21890;SDS011;11110;52.386;16.940;2022-07-29T05:05:36;16.90;;;4.20;;
21890;SDS011;11110;52.386;16.940;2022-07-29T05:08:04;17.08;;;4.35;;
21890;SDS011;11110;52.386;16.940;2022-07-29T05:10:34;13.55;;;3.85;;
21890;SDS011;11110;52.386;16.940;2022-07-29T05:13:04;13.45;;;4.07;;
21890;SDS011;11110;52.386;16.940;2022-07-29T05:15:34;14.88;;;4.13;;
21890;SDS011;11110;52.386;16.940;2022-07-29T05:18:03;15.73;;;4.05;;
21890;SDS011;11110;52.386;16.940;2022-07-29T05:20:32;10.80;;;3.25;;
21890;SDS011;11110;52.386;16.940;2022-07-29T05:23:01;16.52;;;4.40;;
21890;SDS011;11110;52.386;16.940;2022-07-29T05:25:30;14.70;;;4.85;;
21890;SDS011;11110;52.386;16.940;2022-07-29T05:28:11;15.45;;;4.47;;
21890;SDS011;11110;52.386;16.940;2022-07-29T05:30:40;12.50;;;4.03;;
21890;SDS011;11110;52.386;16.940;2022-07-29T05:33:08;11.88;;;3.78;;
21890;SDS011;11110;52.386;16.940;2022-07-29T05:35:57;14.30;;;4.13;;
21890;SDS011;11110;52.386;16.940;2022-07-29T05:38:26;15.98;;;4.55;;
21890;SDS011;11110;52.386;16.940;2022-07-29T05:40:56;15.65;;;4.20;;
21890;SDS011;11110;52.386;16.940;2022-07-29T05:43:26;12.23;;;3.65;;
21890;SDS011;11110;52.386;16.940;2022-07-29T05:45:55;12.43;;;3.95;;
21890;SDS011;11110;52.386;16.940;2022-07-29T05:48:24;14.57;;;4.20;;
21890;SDS011;11110;52.386;16.940;2022-07-29T05:50:53;15.82;;;3.97;;
21890;SDS011;11110;52.386;16.940;2022-07-29T05:53:22;15.82;;;4.22;;
21890;SDS011;11110;52.386;16.940;2022-07-29T05:55:50;16.23;;;4.25;;
21890;SDS011;11110;52.386;16.940;2022-07-29T05:58:19;9.85;;;3.42;;
21890;SDS011;11110;52.386;16.940;2022-07-29T06:00:49;16.98;;;4.85;;
21890;SDS011;11110;52.386;16.940;2022-07-29T06:03:17;14.98;;;3.97;;
21890;SDS011;11110;52.386;16.940;2022-07-29T06:05:46;10.98;;;3.58;;
21890;SDS011;11110;52.386;16.940;2022-07-29T06:08:14;14.27;;;4.00;;
21890;SDS011;11110;52.386;16.940;2022-07-29T06:10:42;12.15;;;3.75;;
21890;SDS011;11110;52.386;16.940;2022-07-29T06:13:12;15.32;;;3.53;;
21890;SDS011;11110;52.386;16.940;2022-07-29T06:15:42;16.55;;;4.20;;
21890;SDS011;11110;52.386;16.940;2022-07-29T06:18:13;16.77;;;4.35;;
21890;SDS011;11110;52.386;16.940;2022-07-29T06:20:41;13.05;;;3.67;;
21890;SDS011;11110;52.386;16.940;2022-07-29T06:23:10;16.52;;;4.00;;
21890;SDS011;11110;52.386;16.940;2022-07-29T06:25:39;12.77;;;3.17;;
21890;SDS011;11110;52.386;16.940;2022-07-29T06:28:08;12.93;;;3.92;;
21890;SDS011;11110;52.386;16.940;2022-07-29T06:30:36;16.42;;;4.43;;
21890;SDS011;11110;52.386;16.940;2022-07-29T06:33:04;14.98;;;4.18;;
21890;SDS011;11110;52.386;16.940;2022-07-29T06:35:35;14.57;;;4.13;;
21890;SDS011;11110;52.386;16.940;2022-07-29T06:38:08;14.18;;;4.25;;
21890;SDS011;11110;52.386;16.940;2022-07-29T06:40:56;13.35;;;3.58;;
21890;SDS011;11110;52.386;16.940;2022-07-29T06:43:32;19.38;;;4.43;;
21890;SDS011;11110;52.386;16.940;2022-07-29T06:46:20;15.10;;;3.88;;
21890;SDS011;11110;52.386;16.940;2022-07-29T06:48:50;11.63;;;3.05;;
21890;SDS011;11110;52.386;16.940;2022-07-29T06:51:20;11.18;;;3.42;;
21890;SDS011;11110;52.386;16.940;2022-07-29T06:53:51;17.05;;;4.20;;
21890;SDS011;11110;52.386;16.940;2022-07-29T06:56:25;10.77;;;3.33;;
21890;SDS011;11110;52.386;16.940;2022-07-29T06:58:54;14.63;;;3.70;;
21890;SDS011;11110;52.386;16.940;2022-07-29T07:01:22;10.63;;;2.58;;
21890;SDS011;11110;52.386;16.940;2022-07-29T07:03:51;9.73;;;3.08;;
21890;SDS011;11110;52.386;16.940;2022-07-29T07:06:20;10.23;;;3.05;;
21890;SDS011;11110;52.386;16.940;2022-07-29T07:08:49;14.15;;;3.83;;
21890;SDS011;11110;52.386;16.940;2022-07-29T07:11:17;10.82;;;3.22;;
21890;SDS011;11110;52.386;16.940;2022-07-29T07:13:46;16.35;;;3.90;;
21890;SDS011;11110;52.386;16.940;2022-07-29T07:16:14;9.55;;;2.30;;
21890;SDS011;11110;52.386;16.940;2022-07-29T07:18:42;12.35;;;2.90;;
21890;SDS011;11110;52.386;16.940;2022-07-29T07:21:12;9.32;;;2.33;;
21890;SDS011;11110;52.386;16.940;2022-07-29T07:23:46;6.75;;;2.20;;
21890;SDS011;11110;52.386;16.940;2022-07-29T07:26:14;9.95;;;2.92;;
21890;SDS011;11110;52.386;16.940;2022-07-29T07:28:43;9.93;;;2.75;;
21890;SDS011;11110;52.386;16.940;2022-07-29T07:31:11;9.77;;;2.58;;
21890;SDS011;11110;52.386;16.940;2022-07-29T07:33:40;8.88;;;2.83;;
21890;SDS011;11110;52.386;16.940;2022-07-29T07:36:09;7.43;;;2.70;;
21890;SDS011;11110;52.386;16.940;2022-07-29T07:38:37;12.70;;;4.03;;
21890;SDS011;11110;52.386;16.940;2022-07-29T07:41:07;13.15;;;3.47;;
21890;SDS011;11110;52.386;16.940;2022-07-29T07:43:35;10.90;;;3.20;;
21890;SDS011;11110;52.386;16.940;2022-07-29T07:46:04;9.73;;;3.25;;
21890;SDS011;11110;52.386;16.940;2022-07-29T07:48:32;7.40;;;2.75;;
21890;SDS011;11110;52.386;16.940;2022-07-29T07:51:01;9.50;;;3.22;;
21890;SDS011;11110;52.386;16.940;2022-07-29T07:53:30;8.90;;;3.13;;
21890;SDS011;11110;52.386;16.940;2022-07-29T07:55:58;8.30;;;2.97;;
21890;SDS011;11110;52.386;16.940;2022-07-29T07:58:43;11.30;;;3.28;;
21890;SDS011;11110;52.386;16.940;2022-07-29T08:01:12;9.48;;;3.30;;
21890;SDS011;11110;52.386;16.940;2022-07-29T08:03:40;9.82;;;3.75;;
21890;SDS011;11110;52.386;16.940;2022-07-29T08:06:09;7.68;;;2.88;;
21890;SDS011;11110;52.386;16.940;2022-07-29T08:08:37;10.48;;;3.25;;
21890;SDS011;11110;52.386;16.940;2022-07-29T08:11:06;8.38;;;2.80;;
21890;SDS011;11110;52.386;16.940;2022-07-29T08:13:35;12.65;;;3.13;;
21890;SDS011;11110;52.386;16.940;2022-07-29T08:16:07;7.10;;;2.28;;
21890;SDS011;11110;52.386;16.940;2022-07-29T08:18:40;8.88;;;2.92;;
21890;SDS011;11110;52.386;16.940;2022-07-29T08:21:10;10.07;;;3.22;;
21890;SDS011;11110;52.386;16.940;2022-07-29T08:23:41;8.45;;;2.75;;
21890;SDS011;11110;52.386;16.940;2022-07-29T08:26:24;8.00;;;2.90;;
21890;SDS011;11110;52.386;16.940;2022-07-29T08:28:53;8.80;;;2.78;;
21890;SDS011;11110;52.386;16.940;2022-07-29T08:31:22;9.60;;;2.58;;
21890;SDS011;11110;52.386;16.940;2022-07-29T08:33:51;10.38;;;3.47;;
21890;SDS011;11110;52.386;16.940;2022-07-29T08:36:19;9.52;;;3.20;;
21890;SDS011;11110;52.386;16.940;2022-07-29T08:38:48;8.45;;;3.38;;
21890;SDS011;11110;52.386;16.940;2022-07-29T08:41:17;8.80;;;2.80;;
21890;SDS011;11110;52.386;16.940;2022-07-29T08:43:46;8.98;;;3.53;;
21890;SDS011;11110;52.386;16.940;2022-07-29T08:46:15;6.28;;;2.63;;
21890;SDS011;11110;52.386;16.940;2022-07-29T08:48:45;7.53;;;2.67;;
21890;SDS011;11110;52.386;16.940;2022-07-29T08:51:15;8.77;;;2.95;;
21890;SDS011;11110;52.386;16.940;2022-07-29T08:53:47;7.25;;;2.38;;
21890;SDS011;11110;52.386;16.940;2022-07-29T08:56:17;6.65;;;2.35;;
21890;SDS011;11110;52.386;16.940;2022-07-29T08:58:47;9.65;;;2.97;;
21890;SDS011;11110;52.386;16.940;2022-07-29T09:01:21;8.20;;;2.85;;
21890;SDS011;11110;52.386;16.940;2022-07-29T09:04:10;6.75;;;2.92;;
21890;SDS011;11110;52.386;16.940;2022-07-29T09:06:42;7.00;;;2.53;;
21890;SDS011;11110;52.386;16.940;2022-07-29T09:09:12;6.38;;;2.53;;
21890;SDS011;11110;52.386;16.940;2022-07-29T09:11:41;6.80;;;2.50;;
21890;SDS011;11110;52.386;16.940;2022-07-29T09:14:11;6.70;;;2.97;;
21890;SDS011;11110;52.386;16.940;2022-07-29T09:16:48;12.32;;;3.05;;
21890;SDS011;11110;52.386;16.940;2022-07-29T09:19:25;9.77;;;3.03;;
21890;SDS011;11110;52.386;16.940;2022-07-29T09:21:56;6.28;;;2.95;;
21890;SDS011;11110;52.386;16.940;2022-07-29T09:24:36;6.07;;;2.63;;
21890;SDS011;11110;52.386;16.940;2022-07-29T09:29:57;4.85;;;2.00;;
21890;SDS011;11110;52.386;16.940;2022-07-29T09:32:27;5.47;;;2.15;;
21890;SDS011;11110;52.386;16.940;2022-07-29T09:35:16;6.65;;;2.63;;
21890;SDS011;11110;52.386;16.940;2022-07-29T09:37:46;4.65;;;1.73;;
21890;SDS011;11110;52.386;16.940;2022-07-29T09:40:15;5.13;;;2.00;;
21890;SDS011;11110;52.386;16.940;2022-07-29T09:42:45;4.18;;;1.90;;
21890;SDS011;11110;52.386;16.940;2022-07-29T09:45:25;6.90;;;1.90;;
21890;SDS011;11110;52.386;16.940;2022-07-29T09:47:56;5.05;;;2.17;;
21890;SDS011;11110;52.386;16.940;2022-07-29T09:50:38;8.23;;;2.60;;
21890;SDS011;11110;52.386;16.940;2022-07-29T09:53:08;6.78;;;2.60;;
21890;SDS011;11110;52.386;16.940;2022-07-29T09:55:46;4.88;;;1.90;;
21890;SDS011;11110;52.386;16.940;2022-07-29T09:58:18;4.88;;;2.65;;
21890;SDS011;11110;52.386;16.940;2022-07-29T10:00:49;5.97;;;2.65;;
21890;SDS011;11110;52.386;16.940;2022-07-29T10:03:18;7.93;;;2.63;;
21890;SDS011;11110;52.386;16.940;2022-07-29T10:08:43;7.28;;;2.60;;
21890;SDS011;11110;52.386;16.940;2022-07-29T10:11:12;7.97;;;2.95;;
21890;SDS011;11110;52.386;16.940;2022-07-29T10:13:43;9.20;;;2.95;;
21890;SDS011;11110;52.386;16.940;2022-07-29T10:16:13;5.35;;;2.42;;
21890;SDS011;11110;52.386;16.940;2022-07-29T10:18:43;5.63;;;2.75;;
21890;SDS011;11110;52.386;16.940;2022-07-29T10:21:13;7.07;;;2.38;;
21890;SDS011;11110;52.386;16.940;2022-07-29T10:24:05;6.75;;;2.60;;
21890;SDS011;11110;52.386;16.940;2022-07-29T10:26:40;5.72;;;2.15;;
21890;SDS011;11110;52.386;16.940;2022-07-29T10:29:10;7.55;;;2.08;;
21890;SDS011;11110;52.386;16.940;2022-07-29T10:31:42;5.00;;;2.47;;
21890;SDS011;11110;52.386;16.940;2022-07-29T10:34:19;7.78;;;2.92;;
21890;SDS011;11110;52.386;16.940;2022-07-29T10:36:54;10.90;;;3.80;;
21890;SDS011;11110;52.386;16.940;2022-07-29T10:39:36;5.97;;;2.03;;
21890;SDS011;11110;52.386;16.940;2022-07-29T10:42:17;7.32;;;2.00;;
21890;SDS011;11110;52.386;16.940;2022-07-29T10:45:00;6.43;;;2.25;;
21890;SDS011;11110;52.386;16.940;2022-07-29T10:47:29;6.95;;;3.25;;
21890;SDS011;11110;52.386;16.940;2022-07-29T10:50:02;7.55;;;3.00;;
21890;SDS011;11110;52.386;16.940;2022-07-29T10:52:51;9.65;;;2.50;;
21890;SDS011;11110;52.386;16.940;2022-07-29T10:55:31;6.93;;;2.50;;
21890;SDS011;11110;52.386;16.940;2022-07-29T10:58:11;4.85;;;2.25;;
21890;SDS011;11110;52.386;16.940;2022-07-29T11:00:43;6.55;;;2.45;;
21890;SDS011;11110;52.386;16.940;2022-07-29T11:06:17;5.07;;;2.60;;
21890;SDS011;11110;52.386;16.940;2022-07-29T11:11:47;5.43;;;1.90;;
21890;SDS011;11110;52.386;16.940;2022-07-29T11:17:23;5.32;;;2.78;;
21890;SDS011;11110;52.386;16.940;2022-07-29T11:19:54;6.28;;;2.78;;
21890;SDS011;11110;52.386;16.940;2022-07-29T11:23:17;4.40;;;1.98;;
21890;SDS011;11110;52.386;16.940;2022-07-29T11:28:50;8.70;;;2.65;;
21890;SDS011;11110;52.386;16.940;2022-07-29T11:31:32;5.88;;;2.92;;
21890;SDS011;11110;52.386;16.940;2022-07-29T11:34:15;6.50;;;2.88;;
21890;SDS011;11110;52.386;16.940;2022-07-29T11:37:13;5.50;;;2.60;;
21890;SDS011;11110;52.386;16.940;2022-07-29T11:40:13;7.00;;;2.47;;
21890;SDS011;11110;52.386;16.940;2022-07-29T11:42:47;6.50;;;2.95;;
21890;SDS011;11110;52.386;16.940;2022-07-29T11:45:20;12.23;;;3.05;;
21890;SDS011;11110;52.386;16.940;2022-07-29T11:48:15;4.82;;;2.88;;
21890;SDS011;11110;52.386;16.940;2022-07-29T11:51:08;5.18;;;2.45;;
21890;SDS011;11110;52.386;16.940;2022-07-29T11:53:38;6.72;;;3.55;;
21890;SDS011;11110;52.386;16.940;2022-07-29T11:56:07;5.43;;;2.58;;
21890;SDS011;11110;52.386;16.940;2022-07-29T11:58:41;5.93;;;2.83;;
21890;SDS011;11110;52.386;16.940;2022-07-29T12:01:13;7.55;;;2.58;;
21890;SDS011;11110;52.386;16.940;2022-07-29T12:03:44;5.00;;;2.30;;
21890;SDS011;11110;52.386;16.940;2022-07-29T12:06:13;7.57;;;2.75;;
21890;SDS011;11110;52.386;16.940;2022-07-29T12:08:44;4.82;;;2.38;;
21890;SDS011;11110;52.386;16.940;2022-07-29T12:11:16;8.63;;;2.40;;
21890;SDS011;11110;52.386;16.940;2022-07-29T12:13:49;5.13;;;2.35;;
21890;SDS011;11110;52.386;16.940;2022-07-29T12:16:19;5.47;;;2.67;;
21890;SDS011;11110;52.386;16.940;2022-07-29T12:18:56;6.82;;;2.55;;
21890;SDS011;11110;52.386;16.940;2022-07-29T12:21:25;5.63;;;2.70;;
21890;SDS011;11110;52.386;16.940;2022-07-29T12:23:54;3.80;;;2.70;;
21890;SDS011;11110;52.386;16.940;2022-07-29T12:26:34;4.72;;;2.50;;
21890;SDS011;11110;52.386;16.940;2022-07-29T12:29:06;5.60;;;3.13;;
21890;SDS011;11110;52.386;16.940;2022-07-29T12:31:43;5.10;;;2.45;;
21890;SDS011;11110;52.386;16.940;2022-07-29T12:34:13;4.25;;;1.95;;
21890;SDS011;11110;52.386;16.940;2022-07-29T12:36:43;5.97;;;2.88;;
21890;SDS011;11110;52.386;16.940;2022-07-29T12:39:12;4.65;;;2.40;;
21890;SDS011;11110;52.386;16.940;2022-07-29T12:41:40;2.88;;;2.10;;
21890;SDS011;11110;52.386;16.940;2022-07-29T12:44:09;3.17;;;2.38;;
21890;SDS011;11110;52.386;16.940;2022-07-29T12:46:37;4.93;;;2.40;;
21890;SDS011;11110;52.386;16.940;2022-07-29T12:49:07;5.97;;;2.63;;
21890;SDS011;11110;52.386;16.940;2022-07-29T12:51:38;5.53;;;2.75;;
21890;SDS011;11110;52.386;16.940;2022-07-29T12:54:08;6.85;;;2.30;;
21890;SDS011;11110;52.386;16.940;2022-07-29T12:56:37;3.30;;;2.45;;
21890;SDS011;11110;52.386;16.940;2022-07-29T12:59:13;3.40;;;2.00;;
21890;SDS011;11110;52.386;16.940;2022-07-29T13:01:43;4.20;;;2.03;;
21890;SDS011;11110;52.386;16.940;2022-07-29T13:04:24;4.03;;;2.65;;
21890;SDS011;11110;52.386;16.940;2022-07-29T13:07:03;3.67;;;2.60;;
21890;SDS011;11110;52.386;16.940;2022-07-29T13:09:38;5.35;;;2.78;;
21890;SDS011;11110;52.386;16.940;2022-07-29T13:12:08;3.85;;;2.15;;
21890;SDS011;11110;52.386;16.940;2022-07-29T13:14:38;5.55;;;2.25;;
21890;SDS011;11110;52.386;16.940;2022-07-29T13:17:08;5.70;;;2.92;;
21890;SDS011;11110;52.386;16.940;2022-07-29T13:19:39;4.00;;;2.38;;
21890;SDS011;11110;52.386;16.940;2022-07-29T13:22:09;3.70;;;2.30;;
21890;SDS011;11110;52.386;16.940;2022-07-29T13:24:47;5.25;;;2.35;;
21890;SDS011;11110;52.386;16.940;2022-07-29T13:27:17;5.30;;;2.70;;
21890;SDS011;11110;52.386;16.940;2022-07-29T13:29:47;3.17;;;2.25;;
21890;SDS011;11110;52.386;16.940;2022-07-29T13:32:18;3.85;;;2.30;;
21890;SDS011;11110;52.386;16.940;2022-07-29T13:34:55;4.47;;;2.85;;
21890;SDS011;11110;52.386;16.940;2022-07-29T13:37:24;4.18;;;2.30;;
21890;SDS011;11110;52.386;16.940;2022-07-29T13:39:56;6.65;;;2.80;;
21890;SDS011;11110;52.386;16.940;2022-07-29T13:42:25;6.68;;;2.67;;
21890;SDS011;11110;52.386;16.940;2022-07-29T13:44:54;6.30;;;2.78;;
21890;SDS011;11110;52.386;16.940;2022-07-29T13:47:22;5.30;;;2.63;;
21890;SDS011;11110;52.386;16.940;2022-07-29T13:50:00;3.22;;;2.03;;
21890;SDS011;11110;52.386;16.940;2022-07-29T13:52:28;3.45;;;2.63;;
21890;SDS011;11110;52.386;16.940;2022-07-29T13:54:57;6.10;;;2.47;;
21890;SDS011;11110;52.386;16.940;2022-07-29T13:57:25;3.53;;;2.25;;
21890;SDS011;11110;52.386;16.940;2022-07-29T13:59:55;2.60;;;2.33;;
21890;SDS011;11110;52.386;16.940;2022-07-29T14:02:23;5.65;;;2.50;;
21890;SDS011;11110;52.386;16.940;2022-07-29T14:04:52;3.20;;;2.60;;
21890;SDS011;11110;52.386;16.940;2022-07-29T14:07:22;4.43;;;2.50;;
21890;SDS011;11110;52.386;16.940;2022-07-29T14:09:51;2.28;;;1.92;;
21890;SDS011;11110;52.386;16.940;2022-07-29T14:12:19;3.30;;;2.20;;
21890;SDS011;11110;52.386;16.940;2022-07-29T14:14:47;3.25;;;2.17;;
21890;SDS011;11110;52.386;16.940;2022-07-29T14:17:16;2.25;;;2.05;;
21890;SDS011;11110;52.386;16.940;2022-07-29T14:19:44;2.97;;;2.45;;
21890;SDS011;11110;52.386;16.940;2022-07-29T14:22:12;5.95;;;2.03;;
21890;SDS011;11110;52.386;16.940;2022-07-29T14:24:43;3.17;;;2.45;;
21890;SDS011;11110;52.386;16.940;2022-07-29T14:27:12;3.67;;;2.08;;
21890;SDS011;11110;52.386;16.940;2022-07-29T14:29:40;3.47;;;2.10;;
21890;SDS011;11110;52.386;16.940;2022-07-29T14:32:09;3.13;;;2.15;;
21890;SDS011;11110;52.386;16.940;2022-07-29T14:34:38;4.22;;;2.42;;
21890;SDS011;11110;52.386;16.940;2022-07-29T14:37:06;3.20;;;1.90;;
21890;SDS011;11110;52.386;16.940;2022-07-29T14:39:43;3.83;;;2.00;;
21890;SDS011;11110;52.386;16.940;2022-07-29T14:42:11;3.70;;;1.98;;
21890;SDS011;11110;52.386;16.940;2022-07-29T14:44:40;2.47;;;2.25;;
21890;SDS011;11110;52.386;16.940;2022-07-29T14:47:10;4.28;;;2.03;;
21890;SDS011;11110;52.386;16.940;2022-07-29T14:49:38;6.80;;;2.25;;
21890;SDS011;11110;52.386;16.940;2022-07-29T14:52:07;4.93;;;2.35;;
21890;SDS011;11110;52.386;16.940;2022-07-29T14:54:35;2.65;;;1.92;;
21890;SDS011;11110;52.386;16.940;2022-07-29T14:57:05;2.30;;;2.03;;
21890;SDS011;11110;52.386;16.940;2022-07-29T14:59:33;3.10;;;2.55;;
21890;SDS011;11110;52.386;16.940;2022-07-29T15:02:02;2.50;;;1.95;;
21890;SDS011;11110;52.386;16.940;2022-07-29T15:04:31;5.82;;;2.25;;
21890;SDS011;11110;52.386;16.940;2022-07-29T15:06:59;4.30;;;2.03;;
21890;SDS011;11110;52.386;16.940;2022-07-29T15:09:28;2.92;;;2.10;;
21890;SDS011;11110;52.386;16.940;2022-07-29T15:11:56;6.63;;;2.22;;
21890;SDS011;11110;52.386;16.940;2022-07-29T15:14:27;5.10;;;2.08;;